KECG/ECG METAR and TAF weather

Enter ICAO airport designator
Station Type Date Time Source
KECG METAR 2020/04/09 18:54 UTC NOAA

KECG 091854Z 27011G30KT 10SM FEW060 28/14 A2936 RMK AO2 PK WND 24032/1809 SLP942 T02780139


Station Type Date Time Source
KECG Decoded METAR 2020/04/09 18:54 UTC NOAA

ELIZABETH CITY C/G REGN AIRPORT , NC, United States (KECG) 36-15N 076-10W 11M
Apr 09, 2020 - 02:54 PM EDT / 2020.04.09 1854 UTC
Wind: from the W (270 degrees) at 13 MPH (11 KT) gusting to 35 MPH (30 KT):0
Visibility: 10 mile(s):0
Sky conditions: mostly clear
Temperature: 82.0 F (27.8 C)
Dew Point: 57.0 F (13.9 C)
Relative Humidity: 42%
Pressure (altimeter): 29.36 in. Hg (994 hPa)
ob: KECG 091854Z 27011G30KT 10SM FEW060 28/14 A2936 RMK AO2 PK WND 24032/1809 SLP942 T02780139
cycle: 19

Station Type Date Time Source
KECG TAF 2020/04/09 18:39 UTC NOAA

TAF KECG 091732Z 0918/1018 26012G23KT P6SM SKC
FM092000 28018G32KT P6SM SKC
FM100500 30012KT P6SM SKC
FM101200 29014G23KT P6SM SCT050

Example: see airport list